Time;durP1;ratioP1;P1;durP2;ratioP2;P2;SDS_P1;SDS_P2;PMS_P1;PMS_P2;Temp;Humidity;BMP_temperature;BMP_pressure;BME280_temperature;BME280_humidity;BME280_pressure;Samples;Min_cycle;Max_cycle;Signal;HPM_P1;HPM_P2
2021/11/19 00:01:50;;;;;;;7.32;3.88;;;;;;;7.95;68.74;100758.97;4949537;28;105802;-68
2021/11/19 00:04:17;;;;;;;4.78;3.00;;;;;;;7.96;68.49;100750.06;4948874;28;106179;-68
2021/11/19 00:06:42;;;;;;;5.65;3.08;;;;;;;7.97;68.08;100763.19;4948706;28;105957;-69
2021/11/19 00:09:09;;;;;;;6.35;3.55;;;;;;;7.99;68.85;100765.69;4948599;28;105860;-69
2021/11/19 00:11:37;;;;;;;5.05;3.53;;;;;;;8.00;68.26;100756.75;4949126;28;106026;-68
2021/11/19 00:14:05;;;;;;;5.93;3.30;;;;;;;8.02;68.87;100760.09;4948469;28;106198;-68
2021/11/19 00:16:32;;;;;;;9.43;3.67;;;;;;;8.03;68.78;100761.78;4948536;28;105913;-70
2021/11/19 00:18:59;;;;;;;6.20;3.08;;;;;;;8.02;68.69;100754.78;4948601;28;105958;-69
2021/11/19 00:21:27;;;;;;;5.43;3.30;;;;;;;7.99;68.87;100749.78;4949679;28;106011;-67
2021/11/19 00:23:53;;;;;;;7.80;3.63;;;;;;;7.96;69.46;100739.44;4948731;28;106149;-68
2021/11/19 00:26:21;;;;;;;4.88;3.20;;;;;;;7.94;68.78;100742.25;4948654;28;105912;-67
2021/11/19 00:28:47;;;;;;;5.38;2.80;;;;;;;7.93;69.31;100734.44;4948313;28;106227;-69
2021/11/19 00:31:14;;;;;;;5.65;3.40;;;;;;;7.89;69.60;100741.00;4949049;28;106173;-69
2021/11/19 00:33:40;;;;;;;6.50;3.35;;;;;;;7.89;69.46;100717.13;4947911;28;105905;-66
2021/11/19 00:36:08;;;;;;;5.95;3.05;;;;;;;7.88;70.28;100726.03;4948315;28;105998;-70
2021/11/19 00:38:35;;;;;;;7.22;3.13;;;;;;;7.88;69.69;100726.03;4950508;28;106044;-70
2021/11/19 00:41:04;;;;;;;7.93;3.47;;;;;;;7.88;70.19;100726.88;4952802;28;106101;-68
2021/11/19 00:43:29;;;;;;;3.90;2.85;;;;;;;7.90;70.02;100724.06;4951843;28;106435;-67
2021/11/19 00:45:56;;;;;;;7.38;3.15;;;;;;;7.88;70.55;100734.81;4951846;28;106026;-68
2021/11/19 00:48:24;;;;;;;5.85;3.25;;;;;;;7.90;70.39;100727.56;4951707;28;106215;-69
2021/11/19 00:50:54;;;;;;;4.97;2.70;;;;;;;7.92;70.42;100722.13;4951462;28;105990;-70
2021/11/19 00:53:20;;;;;;;6.03;3.60;;;;;;;7.92;70.42;100730.91;4952186;28;105932;-68
2021/11/19 00:55:45;;;;;;;5.35;2.85;;;;;;;7.93;70.15;100729.13;4951450;28;105937;-70
2021/11/19 00:58:12;;;;;;;4.47;2.95;;;;;;;7.95;70.71;100720.03;4951341;28;106253;-70
2021/11/19 01:00:45;;;;;;;5.60;3.15;;;;;;;7.96;70.69;100723.53;4951951;28;106009;-70
2021/11/19 01:03:11;;;;;;;4.28;2.80;;;;;;;7.94;70.42;100736.06;4951713;28;106124;-68
2021/11/19 01:05:37;;;;;;;6.20;3.42;;;;;;;7.93;70.53;100729.13;4951201;28;106091;-71
2021/11/19 01:08:03;;;;;;;8.02;4.25;;;;;;;7.93;70.73;100723.81;4951266;28;106102;-70
2021/11/19 01:10:31;;;;;;;6.38;2.50;;;;;;;7.92;71.16;100727.44;4951505;28;106312;-68
2021/11/19 01:12:57;;;;;;;4.55;2.70;;;;;;;7.91;71.13;100736.38;4951490;28;106384;-71
2021/11/19 01:15:31;;;;;;;7.47;2.97;;;;;;;7.92;70.49;100722.13;4951438;28;106566;-70
2021/11/19 01:18:01;;;;;;;5.65;2.72;;;;;;;7.91;71.10;100708.03;4951342;28;105790;-71
2021/11/19 01:20:39;;;;;;;4.53;3.05;;;;;;;7.89;71.08;100717.13;4951989;28;105872;-66
2021/11/19 01:23:10;;;;;;;5.55;2.97;;;;;;;7.89;71.21;100712.63;4951304;28;106191;-68
2021/11/19 01:25:38;;;;;;;5.78;2.83;;;;;;;7.87;70.63;100719.06;4951017;28;105953;-69
2021/11/19 01:28:04;;;;;;;4.55;3.03;;;;;;;7.87;71.41;100719.06;4950703;28;106191;-69
2021/11/19 01:30:37;;;;;;;5.65;3.53;;;;;;;7.86;71.15;100717.38;4951935;28;105904;-70
2021/11/19 01:33:04;;;;;;;5.28;2.63;;;;;;;7.84;71.45;100714.03;4950957;28;106281;-70
2021/11/19 01:35:30;;;;;;;5.60;2.72;;;;;;;7.84;71.49;100722.81;4950960;28;105765;-70
2021/11/19 01:37:55;;;;;;;5.60;2.90;;;;;;;7.81;71.74;100716.97;4950616;28;105853;-70
2021/11/19 01:40:26;;;;;;;5.00;2.88;;;;;;;7.78;71.97;100713.59;4951705;28;106292;-70
2021/11/19 01:42:55;;;;;;;;;;;;;;;7.77;72.03;100719.88;4951524;28;105934;-68
2021/11/19 01:45:32;;;;;;;2.25;1.48;;;;;;;7.77;71.81;100714.56;4950570;28;106756;-69
2021/11/19 01:47:59;;;;;;;6.32;2.88;;;;;;;7.75;72.22;100711.25;4950289;28;106058;-68
2021/11/19 01:50:28;;;;;;;5.35;2.72;;;;;;;7.75;72.52;100697.13;4950998;28;105897;-70
2021/11/19 01:53:03;;;;;;;5.72;2.78;;;;;;;7.71;72.42;100704.53;4950889;28;106302;-71
2021/11/19 01:55:34;;;;;;;4.45;2.40;;;;;;;7.68;72.60;100703.97;4950889;28;105893;-71
2021/11/19 01:58:05;;;;;;;5.05;2.72;;;;;;;7.64;72.25;100692.81;4950917;28;105967;-71
2021/11/19 02:00:39;;;;;;;6.38;2.72;;;;;;;7.60;72.53;100689.59;4951587;28;105796;-71
2021/11/19 02:03:07;;;;;;;4.25;2.50;;;;;;;7.60;72.64;100696.72;4950996;28;105815;-71
2021/11/19 02:05:47;;;;;;;4.03;2.50;;;;;;;7.58;72.89;100696.00;4950479;28;106101;-71
2021/11/19 02:08:19;;;;;;;3.55;2.50;;;;;;;7.57;73.63;100695.19;4948602;28;106496;-70
2021/11/19 02:11:00;;;;;;;3.13;1.98;;;;;;;7.51;72.96;100681.63;4951059;28;105853;-67
2021/11/19 02:13:49;;;;;;;5.63;2.33;;;;;;;7.45;73.33;100673.25;4950629;28;105806;-71
2021/11/19 02:16:17;;;;;;;4.90;2.00;;;;;;;7.43;73.95;100685.78;4950451;28;105925;-69
2021/11/19 02:19:14;;;;;;;6.25;3.03;;;;;;;7.40;74.30;100667.53;4950209;28;106248;-69
2021/11/19 02:21:43;;;;;;;4.25;2.60;;;;;;;7.39;74.20;100668.50;4953843;28;106112;-68
2021/11/19 02:24:32;;;;;;;4.35;2.35;;;;;;;7.36;74.36;100670.59;4950372;28;106112;-69
2021/11/19 02:27:06;;;;;;;3.50;2.08;;;;;;;7.34;74.80;100669.88;4950155;28;106130;-65
2021/11/19 02:29:43;;;;;;;3.72;2.42;;;;;;;7.30;74.81;100661.38;4950011;28;105963;-69
2021/11/19 02:32:13;;;;;;;4.25;2.70;;;;;;;7.25;74.94;100661.78;4950619;28;106074;-70
2021/11/19 02:34:39;;;;;;;5.47;3.15;;;;;;;7.25;75.02;100660.94;4950495;28;106267;-68
2021/11/19 02:37:09;;;;;;;4.13;2.35;;;;;;;7.26;75.98;100660.00;4949981;28;106744;-69
2021/11/19 02:39:50;;;;;;;4.10;2.92;;;;;;;7.25;75.98;100655.66;4949680;28;105960;-65
2021/11/19 02:42:29;;;;;;;5.20;2.63;;;;;;;7.24;76.07;100665.41;4950280;28;106010;-69
2021/11/19 02:45:00;;;;;;;5.38;3.05;;;;;;;7.24;75.70;100653.97;4950065;28;105749;-68
2021/11/19 02:47:29;;;;;;;3.95;2.40;;;;;;;7.24;75.99;100664.56;4949700;28;106019;-67
2021/11/19 02:49:55;;;;;;;4.28;2.72;;;;;;;7.24;76.55;100657.44;4949789;28;105834;-69
2021/11/19 02:52:30;;;;;;;4.38;2.65;;;;;;;7.23;76.31;100662.88;4950093;28;105933;-67
2021/11/19 02:54:57;;;;;;;6.70;3.45;;;;;;;7.25;76.50;100663.59;4949644;28;105918;-70
2021/11/19 02:57:25;;;;;;;5.10;2.78;;;;;;;7.26;76.74;100674.06;4949844;28;105911;-68
2021/11/19 02:59:52;;;;;;;4.30;2.22;;;;;;;7.26;77.09;100670.59;4949084;28;106045;-69
2021/11/19 03:02:25;;;;;;;3.90;2.10;;;;;;;7.25;76.73;100663.59;4950149;28;106046;-66
2021/11/19 03:04:54;;;;;;;5.45;2.30;;;;;;;7.25;77.00;100645.06;4949557;28;105940;-66
2021/11/19 03:07:21;;;;;;;3.65;1.98;;;;;;;7.26;77.27;100647.56;4949350;28;106193;-69
2021/11/19 03:09:50;;;;;;;4.45;3.03;;;;;;;7.26;77.63;100657.34;4949055;28;105852;-69
2021/11/19 03:12:19;;;;;;;3.30;2.10;;;;;;;7.27;77.02;100659.84;4950072;28;105997;-70
2021/11/19 03:14:48;;;;;;;3.20;2.08;;;;;;;7.29;77.59;100662.34;4949724;28;106146;-68
2021/11/19 03:17:15;;;;;;;3.85;2.45;;;;;;;7.28;78.14;100652.72;4949387;28;105787;-70
2021/11/19 03:19:41;;;;;;;4.40;2.67;;;;;;;7.27;77.24;100659.00;4949166;28;105850;-68
2021/11/19 03:22:08;;;;;;;3.40;2.40;;;;;;;7.25;77.39;100656.47;4950388;28;105835;-65
2021/11/19 03:24:35;;;;;;;4.30;2.13;;;;;;;7.26;78.07;100657.34;4949279;28;106213;-71
2021/11/19 03:27:01;;;;;;;4.18;3.08;;;;;;;7.24;78.33;100654.78;4947815;28;105931;-69
2021/11/19 03:29:26;;;;;;;3.55;2.20;;;;;;;7.24;78.07;100659.28;4948940;28;105960;-68
2021/11/19 03:31:52;;;;;;;3.78;2.17;;;;;;;7.24;78.73;100657.44;4949988;28;106081;-68
2021/11/19 03:34:19;;;;;;;4.20;2.83;;;;;;;7.25;78.39;100656.47;4949414;28;106156;-69
2021/11/19 03:36:48;;;;;;;4.00;2.40;;;;;;;7.25;78.88;100658.31;4948982;28;106066;-69
2021/11/19 03:39:15;;;;;;;3.35;1.98;;;;;;;7.26;78.93;100641.44;4948919;28;105874;-70
2021/11/19 03:41:42;;;;;;;4.38;2.78;;;;;;;7.26;79.13;100647.56;4949808;28;105951;-70
2021/11/19 03:44:22;;;;;;;4.00;2.85;;;;;;;7.28;79.11;100652.72;4949399;28;106183;-68
2021/11/19 03:46:54;;;;;;;3.00;2.10;;;;;;;7.34;78.96;100638.94;4949204;28;106211;-68
2021/11/19 03:49:20;;;;;;;4.57;2.35;;;;;;;7.35;78.97;100651.19;4948896;28;106014;-69
2021/11/19 03:51:59;;;;;;;4.05;2.42;;;;;;;7.36;79.26;100642.28;4949159;28;105889;-69
2021/11/19 03:54:29;;;;;;;3.05;2.42;;;;;;;7.37;79.22;100643.94;4948747;28;106205;-70
2021/11/19 03:56:56;;;;;;;4.10;2.90;;;;;;;7.40;79.30;100642.84;4948436;28;106062;-69
2021/11/19 03:59:22;;;;;;;3.75;2.35;;;;;;;7.41;79.42;100636.56;4948442;28;107273;-69
2021/11/19 04:01:50;;;;;;;4.32;2.83;;;;;;;7.44;79.46;100639.75;4949164;28;105917;-67
2021/11/19 04:04:21;;;;;;;2.53;2.08;;;;;;;7.45;79.74;100646.75;4948801;28;105894;-67
2021/11/19 04:06:46;;;;;;;4.55;2.58;;;;;;;7.47;79.28;100643.13;4948661;28;105917;-69
2021/11/19 04:09:11;;;;;;;5.28;3.42;;;;;;;7.47;79.67;100632.53;4946606;28;106845;-68
2021/11/19 04:11:37;;;;;;;4.20;3.22;;;;;;;7.50;80.17;100640.19;4949515;28;105907;-70
2021/11/19 04:14:03;;;;;;;5.13;3.40;;;;;;;7.50;79.77;100635.72;4951691;28;106110;-67
2021/11/19 04:16:32;;;;;;;5.05;3.17;;;;;;;7.50;80.03;100645.50;4951918;28;107175;-69
2021/11/19 04:18:58;;;;;;;5.30;3.38;;;;;;;7.51;80.28;100644.53;4951468;28;106121;-70
2021/11/19 04:21:25;;;;;;;5.13;3.70;;;;;;;7.49;79.83;100642.00;4952478;28;105979;-69
2021/11/19 04:23:53;;;;;;;5.25;3.53;;;;;;;7.50;80.13;100638.38;4951935;28;106137;-68
2021/11/19 04:26:20;;;;;;;5.68;3.45;;;;;;;7.51;79.64;100623.31;4951718;28;105973;-68
2021/11/19 04:28:46;;;;;;;6.72;4.00;;;;;;;7.54;80.45;100625.69;4951675;28;105760;-67
2021/11/19 04:31:13;;;;;;;4.75;3.80;;;;;;;7.53;80.25;100642.56;4952360;28;106242;-69
2021/11/19 04:33:39;;;;;;;6.18;3.78;;;;;;;7.51;80.36;100640.03;4952027;28;106204;-68
2021/11/19 04:36:05;;;;;;;7.78;5.10;;;;;;;7.50;80.67;100645.50;4951778;28;106600;-70
2021/11/19 04:38:31;;;;;;;7.13;4.75;;;;;;;7.50;80.52;100633.06;4951903;28;105841;-67
2021/11/19 04:40:57;;;;;;;7.28;4.45;;;;;;;7.52;80.40;100635.56;4952202;28;106049;-69
2021/11/19 04:43:24;;;;;;;6.50;4.90;;;;;;;7.53;80.91;100634.59;4950348;28;106261;-71
2021/11/19 04:45:51;;;;;;;6.97;4.78;;;;;;;7.53;80.44;100627.50;4951429;28;105937;-70
2021/11/19 04:48:17;;;;;;;8.32;5.30;;;;;;;7.55;80.37;100627.34;4951714;28;105974;-71
2021/11/19 04:50:47;;;;;;;9.10;5.97;;;;;;;7.56;81.06;100621.06;4951968;28;106705;-71
2021/11/19 04:53:15;;;;;;;6.95;5.10;;;;;;;7.57;80.58;100617.44;4951424;28;106238;-70
2021/11/19 04:55:41;;;;;;;10.98;6.07;;;;;;;7.59;81.39;100624.28;4951093;28;105842;-70
2021/11/19 04:58:07;;;;;;;8.70;4.95;;;;;;;7.59;80.60;100620.81;4950958;28;105874;-70
2021/11/19 05:00:39;;;;;;;6.47;4.82;;;;;;;7.57;81.13;100618.28;4952036;28;105901;-70
2021/11/19 05:03:06;;;;;;;9.65;6.47;;;;;;;7.59;80.87;100620.81;4950527;28;106247;-69
2021/11/19 05:05:32;;;;;;;10.43;6.03;;;;;;;7.62;81.35;100623.16;4950719;28;106867;-70
2021/11/19 05:07:58;;;;;;;8.80;6.63;;;;;;;7.63;81.04;100616.88;4950713;28;105820;-69
2021/11/19 05:10:23;;;;;;;11.40;7.00;;;;;;;7.67;81.62;100628.88;4951840;28;105956;-65
2021/11/19 05:12:53;;;;;;;9.10;7.03;;;;;;;7.68;81.21;100625.28;4951307;28;106249;-66
2021/11/19 05:15:19;;;;;;;10.70;6.72;;;;;;;7.72;81.59;100618.69;4950951;28;105935;-67
2021/11/19 05:17:44;;;;;;;8.38;6.55;;;;;;;7.74;81.04;100616.72;4949195;28;106242;-67
2021/11/19 05:20:17;;;;;;;10.75;7.60;;;;;;;7.77;81.47;100628.88;4951588;28;105887;-72
2021/11/19 05:22:42;;;;;;;11.82;8.43;;;;;;;7.79;81.06;100626.91;4950810;28;106213;-70
2021/11/19 05:25:13;;;;;;;11.63;7.15;;;;;;;7.82;81.84;100615.19;4951099;28;106001;-70
2021/11/19 05:27:38;;;;;;;10.20;7.63;;;;;;;7.82;81.68;100631.09;4951055;28;105705;-71
2021/11/19 05:30:06;;;;;;;12.13;7.55;;;;;;;7.85;81.41;100621.06;4951280;28;105832;-71
2021/11/19 05:32:31;;;;;;;11.40;5.20;;;;;;;7.86;81.79;100616.56;4950055;28;106170;-71
2021/11/19 05:34:56;;;;;;;12.88;7.80;;;;;;;7.88;81.65;100626.06;4950612;28;106094;-70
2021/11/19 05:37:22;;;;;;;11.27;7.82;;;;;;;7.90;81.61;100637.38;4950816;28;106361;-71
2021/11/19 05:39:47;;;;;;;13.15;7.75;;;;;;;7.92;81.92;100626.63;4949704;28;105956;-71
2021/11/19 05:42:13;;;;;;;10.90;7.53;;;;;;;7.94;81.16;100629.97;4948671;28;106610;-72
2021/11/19 05:44:40;;;;;;;10.23;7.43;;;;;;;7.96;81.43;100630.66;4948242;28;106477;-71
2021/11/19 05:47:08;;;;;;;13.50;8.23;;;;;;;7.99;81.78;100633.03;4947747;28;106906;-71
2021/11/19 05:49:34;;;;;;;12.18;7.43;;;;;;;8.02;81.32;100638.03;4949774;28;106544;-72
2021/11/19 05:52:01;;;;;;;11.18;7.85;;;;;;;8.05;81.74;100640.44;4966754;28;106009;-72
2021/11/19 05:54:29;;;;;;;10.60;7.75;;;;;;;8.07;81.66;100651.72;4969378;28;108479;-71
2021/11/19 05:56:55;;;;;;;12.65;7.57;;;;;;;8.10;81.82;100635.50;4968876;28;106037;-68
2021/11/19 05:59:21;;;;;;;11.30;7.60;;;;;;;8.11;81.54;100641.66;4970258;28;105974;-68
2021/11/19 06:01:47;;;;;;;11.10;7.30;;;;;;;8.13;81.35;100653.81;4969058;28;106145;-71
2021/11/19 06:04:14;;;;;;;12.43;7.50;;;;;;;8.17;81.23;100637.59;4968579;28;106572;-69
2021/11/19 06:06:40;;;;;;;12.23;8.00;;;;;;;8.18;81.39;100641.94;4968378;28;106004;-68
2021/11/19 06:09:06;;;;;;;10.18;6.97;;;;;;;8.22;81.67;100648.63;4970104;28;106283;-68
2021/11/19 06:11:40;;;;;;;11.45;7.95;;;;;;;8.25;81.82;100645.69;4969413;28;106207;-75
2021/11/19 06:14:10;;;;;;;10.23;7.18;;;;;;;8.26;81.25;100653.50;4969452;28;105968;-67
2021/11/19 06:16:40;;;;;;;11.10;7.38;;;;;;;8.30;81.26;100660.19;4968645;28;106126;-66
2021/11/19 06:19:10;;;;;;;12.80;7.57;;;;;;;8.31;81.50;100655.75;4969888;28;106434;-66
2021/11/19 06:21:49;;;;;;;11.48;7.63;;;;;;;8.34;81.14;100652.78;4969242;28;105896;-66
2021/11/19 06:24:21;;;;;;;11.57;7.75;;;;;;;8.36;81.05;100666.75;4969110;28;106128;-66
2021/11/19 06:26:47;;;;;;;12.73;7.40;;;;;;;8.39;81.03;100661.16;4969127;28;105987;-67
2021/11/19 06:29:13;;;;;;;13.05;6.97;;;;;;;8.40;81.30;100662.81;4969780;28;105781;-71
2021/11/19 06:31:42;;;;;;;12.63;7.95;;;;;;;8.43;81.54;100667.00;4969217;28;106245;-72
2021/11/19 06:34:08;;;;;;;8.63;6.25;;;;;;;8.45;81.55;100676.53;4968813;28;106102;-68
2021/11/19 06:36:34;;;;;;;11.00;7.28;;;;;;;8.49;81.08;100689.50;4968227;28;106009;-66
2021/11/19 06:39:01;;;;;;;10.10;6.85;;;;;;;8.50;81.36;100693.84;4970029;28;105758;-67
2021/11/19 06:41:27;;;;;;;9.85;6.32;;;;;;;8.51;81.51;100696.34;4968857;28;106230;-72
2021/11/19 06:43:53;;;;;;;9.60;6.40;;;;;;;8.54;80.96;100695.22;4968717;28;105994;-66
2021/11/19 06:46:20;;;;;;;10.82;5.32;;;;;;;8.56;81.27;100698.59;4967903;28;105994;-64
2021/11/19 06:48:47;;;;;;;13.27;6.82;;;;;;;8.58;80.90;100691.31;4968575;28;106850;-65
2021/11/19 06:51:13;;;;;;;12.93;7.18;;;;;;;8.61;81.39;100706.94;4968321;28;106593;-66
2021/11/19 06:53:39;;;;;;;8.23;5.05;;;;;;;8.63;81.15;100699.69;4968288;28;106720;-64
2021/11/19 06:56:05;;;;;;;11.00;6.85;;;;;;;8.65;81.15;100713.66;4968751;28;106405;-65
2021/11/19 06:58:30;;;;;;;11.05;6.88;;;;;;;8.67;81.04;100710.88;4969150;28;105951;-66
2021/11/19 07:00:57;;;;;;;8.88;6.38;;;;;;;8.69;80.87;100715.03;4968592;28;106183;-68
2021/11/19 07:03:24;;;;;;;11.48;7.93;;;;;;;8.70;80.72;100714.06;4968089;28;106202;-68
2021/11/19 07:05:50;;;;;;;10.15;6.45;;;;;;;8.73;80.92;100713.75;4968395;28;105891;-67
2021/11/19 07:08:16;;;;;;;10.93;6.30;;;;;;;8.76;80.75;100715.28;4969444;28;105790;-69
2021/11/19 07:10:45;;;;;;;10.10;6.80;;;;;;;8.77;80.49;100724.94;4968676;28;106129;-64
2021/11/19 07:13:12;;;;;;;15.05;7.40;;;;;;;8.79;80.85;100731.78;4967902;28;105888;-66
2021/11/19 07:15:38;;;;;;;12.18;7.25;;;;;;;8.80;80.78;100720.19;4968056;28;106057;-65
2021/11/19 07:18:05;;;;;;;12.27;7.20;;;;;;;8.84;80.63;100727.84;4968743;28;106191;-67
2021/11/19 07:20:31;;;;;;;9.50;6.82;;;;;;;8.85;80.61;100724.22;4968371;28;106187;-68
2021/11/19 07:22:59;;;;;;;12.23;7.13;;;;;;;8.86;80.50;100725.88;4968254;28;106371;-69
2021/11/19 07:25:27;;;;;;;10.05;6.43;;;;;;;8.88;80.96;100726.56;4968203;28;106020;-75
2021/11/19 07:27:56;;;;;;;11.82;7.07;;;;;;;8.89;80.59;100723.78;4969566;28;105871;-69
2021/11/19 07:30:25;;;;;;;10.80;6.78;;;;;;;8.94;80.99;100723.34;4968188;28;106282;-69
2021/11/19 07:32:50;;;;;;;11.55;7.45;;;;;;;8.96;80.43;100730.16;4968110;28;106464;-68
2021/11/19 07:35:17;;;;;;;13.00;6.32;;;;;;;9.01;80.85;100731.53;4967820;28;106917;-64
2021/11/19 07:37:42;;;;;;;12.73;7.47;;;;;;;9.03;80.52;100737.56;4968078;28;106013;-66
2021/11/19 07:40:11;;;;;;;9.68;6.57;;;;;;;9.06;80.62;100727.50;4968013;28;106238;-65
2021/11/19 07:42:36;;;;;;;12.13;6.68;;;;;;;9.08;80.71;100749.44;4967885;28;106091;-65
2021/11/19 07:45:04;;;;;;;9.65;7.45;;;;;;;9.12;80.50;100744.66;4968061;28;106113;-65
2021/11/19 07:47:29;;;;;;;12.88;8.43;;;;;;;9.14;80.39;100745.34;4968470;28;106232;-66
2021/11/19 07:49:54;;;;;;;10.80;7.47;;;;;;;9.15;80.40;100750.50;4968267;28;106723;-67
2021/11/19 07:52:20;;;;;;;11.65;7.32;;;;;;;9.17;80.39;100742.38;4967197;28;106205;-69
2021/11/19 07:54:45;;;;;;;11.90;6.43;;;;;;;9.20;80.31;100743.91;4967893;28;106206;-68
2021/11/19 07:57:11;;;;;;;10.05;7.28;;;;;;;9.22;80.23;100745.44;4968395;28;105905;-66
2021/11/19 07:59:36;;;;;;;12.10;6.18;;;;;;;9.24;80.06;100738.16;4968024;28;106100;-67
2021/11/19 08:02:03;;;;;;;10.90;7.25;;;;;;;9.27;80.32;100763.63;4967277;28;107427;-66
2021/11/19 08:04:31;;;;;;;10.57;6.45;;;;;;;9.30;80.13;100745.53;4967160;28;106250;-67
2021/11/19 08:06:57;;;;;;;11.38;6.65;;;;;;;9.34;80.04;100761.22;4968267;28;105904;-67
2021/11/19 08:09:23;;;;;;;11.10;6.75;;;;;;;9.37;80.08;100737.81;4967727;28;106247;-67
2021/11/19 08:11:49;;;;;;;8.30;5.95;;;;;;;9.39;80.15;100745.63;4967320;28;105976;-67
2021/11/19 08:14:15;;;;;;;9.70;6.15;;;;;;;9.39;80.02;100749.13;4966471;28;106873;-66
2021/11/19 08:16:51;;;;;;;8.20;5.60;;;;;;;9.42;79.93;100748.84;4968564;28;106496;-67
2021/11/19 08:19:22;;;;;;;8.18;5.68;;;;;;;9.43;79.91;100750.50;4967582;28;105732;-73
2021/11/19 08:21:48;;;;;;;9.90;5.20;;;;;;;9.43;79.80;100739.88;4966286;28;106034;-72
2021/11/19 08:24:13;;;;;;;8.02;5.78;;;;;;;9.44;79.70;100756.66;4966957;28;106047;-69
2021/11/19 08:26:46;;;;;;;10.35;6.80;;;;;;;9.45;79.86;100747.72;4968207;28;105898;-66
2021/11/19 08:29:27;;;;;;;9.35;5.85;;;;;;;9.47;79.55;100753.69;4967117;28;106480;-67
2021/11/19 08:31:54;;;;;;;7.90;5.18;;;;;;;9.47;79.74;100748.38;4968142;28;106096;-66
2021/11/19 08:34:20;;;;;;;12.77;5.50;;;;;;;9.48;79.67;100750.88;4967343;28;106033;-68
2021/11/19 08:36:46;;;;;;;5.32;3.50;;;;;;;9.54;79.60;100748.63;4968159;28;105979;-66
2021/11/19 08:39:18;;;;;;;7.93;5.25;;;;;;;9.55;79.73;100751.13;4967360;28;105900;-67
2021/11/19 08:41:44;;;;;;;9.18;5.90;;;;;;;9.55;79.71;100753.78;4967434;28;105985;-66
2021/11/19 08:44:10;;;;;;;9.30;5.72;;;;;;;9.55;79.76;100753.78;4967196;28;106171;-67
2021/11/19 08:46:41;;;;;;;7.63;5.53;;;;;;;9.57;79.48;100745.69;4968150;28;106350;-66
2021/11/19 08:49:09;;;;;;;7.45;5.47;;;;;;;9.61;79.56;100758.53;4967163;28;106001;-67
2021/11/19 08:51:36;;;;;;;8.68;5.60;;;;;;;9.64;79.83;100763.53;4966189;28;106645;-65
2021/11/19 08:54:05;;;;;;;11.68;7.35;;;;;;;9.65;79.49;100751.91;4966926;28;106115;-66
2021/11/19 08:56:31;;;;;;;11.95;6.63;;;;;;;9.70;79.47;100764.75;4967778;28;105970;-66
2021/11/19 08:58:59;;;;;;;9.63;6.60;;;;;;;9.74;79.64;100760.81;4968841;28;105849;-66
2021/11/19 09:01:24;;;;;;;11.23;6.18;;;;;;;9.78;79.35;100759.50;4970069;28;106016;-68
2021/11/19 09:03:50;;;;;;;8.45;5.68;;;;;;;9.83;79.08;100761.75;4970705;28;106540;-67
2021/11/19 09:06:18;;;;;;;8.48;5.28;;;;;;;9.86;78.99;100765.91;4971220;28;105989;-67
2021/11/19 09:08:44;;;;;;;6.90;4.80;;;;;;;9.88;79.18;100775.41;4970856;28;106268;-69
2021/11/19 09:11:12;;;;;;;7.55;5.35;;;;;;;9.89;78.87;100782.41;4969872;28;106024;-68
2021/11/19 09:13:38;;;;;;;8.90;5.28;;;;;;;9.91;79.23;100774.25;4970048;28;106248;-66
2021/11/19 09:16:07;;;;;;;8.77;5.22;;;;;;;9.93;79.10;100785.63;4971104;28;106153;-69
2021/11/19 09:18:36;;;;;;;9.15;5.32;;;;;;;9.93;78.94;100788.28;4970527;28;106029;-65
2021/11/19 09:21:41;;;;;;;6.47;4.53;;;;;;;9.95;78.96;100783.63;4969760;28;105789;-66
2021/11/19 09:24:20;;;;;;;6.90;5.25;;;;;;;9.97;79.01;100768.34;4969281;28;105984;-66
2021/11/19 09:26:58;;;;;;;8.00;4.38;;;;;;;9.99;79.10;100772.53;4970535;28;106944;-65
2021/11/19 09:30:45;;;;;;;6.25;4.22;;;;;;;10.00;78.97;100770.69;5006782;28;105978;-66
2021/11/19 09:33:13;;;;;;;7.78;4.50;;;;;;;9.98;78.90;100773.53;5005324;28;106177;-66
2021/11/19 09:35:40;;;;;;;7.40;4.70;;;;;;;10.01;78.80;100767.06;5004916;28;105709;-65
2021/11/19 09:38:07;;;;;;;7.22;4.43;;;;;;;10.01;78.87;100761.72;5004489;28;107027;-65
2021/11/19 09:40:38;;;;;;;7.00;4.20;;;;;;;10.01;78.73;100775.03;5004982;28;105790;-68
2021/11/19 09:43:22;;;;;;;8.95;4.80;;;;;;;9.99;78.48;100777.00;5002775;28;106278;-66
2021/11/19 09:46:09;;;;;;;7.47;4.95;;;;;;;9.98;78.54;100778.84;5004935;28;106349;-68
2021/11/19 09:48:56;;;;;;;6.95;4.53;;;;;;;9.98;78.69;100773.53;5004780;28;105847;-67
2021/11/19 09:51:39;;;;;;;6.32;4.00;;;;;;;9.98;79.05;100775.34;5004853;28;105813;-69
2021/11/19 09:54:41;;;;;;;7.40;4.05;;;;;;;9.98;78.71;100773.53;5005460;28;105879;-68
2021/11/19 09:57:40;;;;;;;6.95;4.55;;;;;;;9.98;78.65;100772.69;5004713;28;105993;-69
2021/11/19 10:00:17;;;;;;;6.63;4.40;;;;;;;10.02;78.90;100768.75;5004455;28;106043;-65
2021/11/19 10:02:58;;;;;;;6.93;3.58;;;;;;;10.07;78.41;100763.78;5004446;28;105881;-64
2021/11/19 10:05:55;;;;;;;5.38;4.22;;;;;;;10.08;78.36;100765.44;5004902;28;105891;-62
2021/11/19 10:08:53;;;;;;;9.55;5.10;;;;;;;10.09;78.89;100753.81;5004471;28;105774;-65
2021/11/19 10:11:39;;;;;;;5.47;3.55;;;;;;;10.10;78.57;100758.16;5004331;28;106463;-65
2021/11/19 10:14:26;;;;;;;7.32;3.90;;;;;;;10.12;78.76;100763.31;5004312;28;106445;-65
2021/11/19 10:17:22;;;;;;;5.60;3.78;;;;;;;10.14;78.54;100759.53;5005418;28;105960;-65
2021/11/19 10:20:00;;;;;;;7.28;4.25;;;;;;;10.19;78.57;100739.59;5003877;28;106385;-66
2021/11/19 10:22:28;;;;;;;6.07;3.83;;;;;;;10.23;78.74;100762.25;5004048;28;105945;-65
2021/11/19 10:24:53;;;;;;;6.32;3.60;;;;;;;10.26;78.22;100745.97;5004153;28;105996;-66
2021/11/19 10:27:26;;;;;;;5.65;3.78;;;;;;;10.31;78.83;100751.66;5004888;28;105998;-65
2021/11/19 10:30:07;;;;;;;6.72;3.90;;;;;;;10.37;78.62;100750.25;5003784;28;105985;-67
2021/11/19 10:32:33;;;;;;;5.75;3.25;;;;;;;10.41;78.49;100755.09;5004134;28;105992;-68
2021/11/19 10:35:16;;;;;;;6.70;3.72;;;;;;;10.45;77.96;100756.44;5003765;28;106402;-66
2021/11/19 10:38:22;;;;;;;6.28;4.15;;;;;;;10.50;77.90;100748.84;5005206;28;106401;-66
2021/11/19 10:41:19;;;;;;;2.55;2.13;;;;;;;10.52;77.58;100735.34;4998128;28;106190;-66
2021/11/19 10:43:50;;;;;;;5.88;3.70;;;;;;;10.52;78.20;100723.88;4990615;28;105814;-66
2021/11/19 10:46:44;;;;;;;7.30;3.60;;;;;;;10.55;77.66;100742.19;4990350;28;105896;-67
2021/11/19 10:49:27;;;;;;;5.97;3.20;;;;;;;10.52;77.49;100729.19;4991546;28;106244;-66
2021/11/19 10:52:02;;;;;;;6.05;3.40;;;;;;;10.49;77.61;100736.50;4990462;28;105893;-69
2021/11/19 10:54:52;;;;;;;8.23;3.65;;;;;;;10.49;77.24;100731.16;4990792;28;105989;-67
2021/11/19 10:57:51;;;;;;;5.47;2.67;;;;;;;10.49;77.70;100725.84;4989992;28;106056;-68
2021/11/19 11:00:23;;;;;;;7.78;3.20;;;;;;;10.53;77.36;100720.22;4991275;28;106102;-68
2021/11/19 11:02:54;;;;;;;5.38;3.88;;;;;;;10.56;77.58;100730.56;4990223;28;106227;-67
2021/11/19 11:05:36;;;;;;;5.53;2.85;;;;;;;10.55;77.06;100705.75;4990226;28;106045;-66
2021/11/19 11:08:11;;;;;;;4.97;2.97;;;;;;;10.49;77.11;100701.03;4990132;28;106591;-67
2021/11/19 11:10:44;;;;;;;4.13;2.80;;;;;;;10.48;77.05;100716.22;4991346;28;105916;-66
2021/11/19 11:13:31;;;;;;;4.80;3.22;;;;;;;10.45;77.21;100713.00;4990342;28;105684;-65
2021/11/19 11:16:02;;;;;;;6.22;2.97;;;;;;;10.44;77.30;100708.66;4990395;28;106080;-66
2021/11/19 11:18:35;;;;;;;4.55;3.05;;;;;;;10.43;77.39;100699.84;4990119;28;106257;-66
2021/11/19 11:21:13;;;;;;;6.78;2.72;;;;;;;10.46;77.70;100710.19;4990727;28;106342;-65
2021/11/19 11:24:16;;;;;;;5.97;3.05;;;;;;;10.49;77.76;100699.22;4990134;28;105845;-66
2021/11/19 11:26:42;;;;;;;5.78;3.17;;;;;;;10.53;77.56;100699.75;4988419;28;106108;-66
2021/11/19 11:29:07;;;;;;;4.18;2.85;;;;;;;10.59;77.49;100711.59;4989012;28;106485;-66
2021/11/19 11:32:20;;;;;;;4.68;2.38;;;;;;;10.63;77.48;100712.94;4990803;28;106039;-64
2021/11/19 11:35:01;;;;;;;6.22;3.05;;;;;;;10.63;76.96;100710.28;4987361;28;106150;-66
2021/11/19 11:37:34;;;;;;;3.67;2.58;;;;;;;10.60;76.62;100708.75;4989241;28;105881;-67
2021/11/19 11:40:03;;;;;;;4.60;2.63;;;;;;;10.59;76.92;100719.59;4989671;28;105924;-67